sensor_id;sensor_type;location;lat;lon;timestamp;P1;durP1;ratioP1;P2;durP2;ratioP2
912;SDS011;443;51.448;7.028;2023-01-19T00:02:24;9.30;;;5.20;;
912;SDS011;443;51.448;7.028;2023-01-19T00:04:51;7.33;;;4.83;;
912;SDS011;443;51.448;7.028;2023-01-19T00:07:19;8.13;;;5.50;;
912;SDS011;443;51.448;7.028;2023-01-19T00:09:46;5.60;;;4.03;;
912;SDS011;443;51.448;7.028;2023-01-19T00:12:13;7.30;;;5.07;;
912;SDS011;443;51.448;7.028;2023-01-19T00:14:39;10.20;;;6.03;;
912;SDS011;443;51.448;7.028;2023-01-19T00:17:06;6.77;;;6.07;;
912;SDS011;443;51.448;7.028;2023-01-19T00:19:33;7.73;;;5.43;;
912;SDS011;443;51.448;7.028;2023-01-19T00:21:59;7.10;;;5.13;;
912;SDS011;443;51.448;7.028;2023-01-19T00:24:28;9.00;;;5.77;;
912;SDS011;443;51.448;7.028;2023-01-19T00:26:55;6.50;;;5.70;;
912;SDS011;443;51.448;7.028;2023-01-19T00:29:22;6.87;;;5.37;;
912;SDS011;443;51.448;7.028;2023-01-19T00:31:49;7.30;;;6.37;;
912;SDS011;443;51.448;7.028;2023-01-19T00:34:16;8.10;;;6.67;;
912;SDS011;443;51.448;7.028;2023-01-19T00:36:43;7.23;;;5.67;;
912;SDS011;443;51.448;7.028;2023-01-19T00:39:09;8.03;;;6.30;;
912;SDS011;443;51.448;7.028;2023-01-19T00:41:37;6.53;;;5.93;;
912;SDS011;443;51.448;7.028;2023-01-19T00:44:21;7.30;;;5.90;;
912;SDS011;443;51.448;7.028;2023-01-19T00:46:48;7.10;;;5.57;;
912;SDS011;443;51.448;7.028;2023-01-19T00:49:15;4.97;;;4.40;;
912;SDS011;443;51.448;7.028;2023-01-19T00:51:42;9.30;;;5.53;;
912;SDS011;443;51.448;7.028;2023-01-19T00:54:09;6.43;;;4.90;;
912;SDS011;443;51.448;7.028;2023-01-19T00:56:37;7.40;;;4.90;;
912;SDS011;443;51.448;7.028;2023-01-19T00:59:04;11.60;;;6.30;;
912;SDS011;443;51.448;7.028;2023-01-19T01:01:30;6.53;;;5.80;;
912;SDS011;443;51.448;7.028;2023-01-19T01:03:57;9.80;;;6.63;;
912;SDS011;443;51.448;7.028;2023-01-19T01:06:24;6.67;;;5.13;;
912;SDS011;443;51.448;7.028;2023-01-19T01:08:51;6.50;;;5.63;;
912;SDS011;443;51.448;7.028;2023-01-19T01:11:17;8.87;;;5.73;;
912;SDS011;443;51.448;7.028;2023-01-19T01:13:46;9.10;;;6.63;;
912;SDS011;443;51.448;7.028;2023-01-19T01:16:13;8.10;;;6.57;;
912;SDS011;443;51.448;7.028;2023-01-19T01:18:40;7.20;;;6.20;;
912;SDS011;443;51.448;7.028;2023-01-19T01:21:07;8.30;;;7.37;;
912;SDS011;443;51.448;7.028;2023-01-19T01:23:36;7.73;;;6.57;;
912;SDS011;443;51.448;7.028;2023-01-19T01:26:03;9.77;;;6.83;;
912;SDS011;443;51.448;7.028;2023-01-19T01:28:30;7.37;;;5.87;;
912;SDS011;443;51.448;7.028;2023-01-19T01:30:58;8.47;;;5.37;;
912;SDS011;443;51.448;7.028;2023-01-19T01:33:25;7.87;;;6.63;;
912;SDS011;443;51.448;7.028;2023-01-19T01:35:52;6.57;;;4.93;;
912;SDS011;443;51.448;7.028;2023-01-19T01:38:19;7.90;;;6.27;;
912;SDS011;443;51.448;7.028;2023-01-19T01:40:45;7.53;;;5.63;;
912;SDS011;443;51.448;7.028;2023-01-19T01:43:12;11.30;;;7.33;;
912;SDS011;443;51.448;7.028;2023-01-19T01:45:41;8.80;;;5.83;;
912;SDS011;443;51.448;7.028;2023-01-19T01:48:11;6.63;;;5.90;;
912;SDS011;443;51.448;7.028;2023-01-19T01:50:41;5.10;;;4.53;;
912;SDS011;443;51.448;7.028;2023-01-19T01:53:25;7.00;;;6.33;;
912;SDS011;443;51.448;7.028;2023-01-19T01:55:54;8.50;;;6.20;;
912;SDS011;443;51.448;7.028;2023-01-19T01:58:21;9.37;;;6.47;;
912;SDS011;443;51.448;7.028;2023-01-19T02:00:48;8.37;;;5.73;;
912;SDS011;443;51.448;7.028;2023-01-19T02:03:33;10.07;;;6.40;;
912;SDS011;443;51.448;7.028;2023-01-19T02:06:00;7.07;;;5.30;;
912;SDS011;443;51.448;7.028;2023-01-19T02:08:32;7.10;;;5.83;;
912;SDS011;443;51.448;7.028;2023-01-19T02:11:19;7.67;;;5.63;;
912;SDS011;443;51.448;7.028;2023-01-19T02:14:04;7.87;;;5.53;;
912;SDS011;443;51.448;7.028;2023-01-19T02:16:31;7.83;;;7.00;;
912;SDS011;443;51.448;7.028;2023-01-19T02:19:00;8.17;;;5.80;;
912;SDS011;443;51.448;7.028;2023-01-19T02:21:30;8.60;;;5.77;;
912;SDS011;443;51.448;7.028;2023-01-19T02:24:03;7.40;;;6.23;;
912;SDS011;443;51.448;7.028;2023-01-19T02:26:32;6.63;;;6.03;;
912;SDS011;443;51.448;7.028;2023-01-19T02:29:03;8.27;;;5.80;;
912;SDS011;443;51.448;7.028;2023-01-19T02:31:33;6.87;;;5.70;;
912;SDS011;443;51.448;7.028;2023-01-19T02:34:02;7.40;;;6.13;;
912;SDS011;443;51.448;7.028;2023-01-19T02:36:32;7.67;;;5.60;;
912;SDS011;443;51.448;7.028;2023-01-19T02:39:03;8.30;;;6.10;;
912;SDS011;443;51.448;7.028;2023-01-19T02:41:33;6.60;;;5.90;;
912;SDS011;443;51.448;7.028;2023-01-19T02:44:04;5.53;;;5.03;;
912;SDS011;443;51.448;7.028;2023-01-19T02:46:33;8.60;;;6.23;;
912;SDS011;443;51.448;7.028;2023-01-19T02:49:00;6.90;;;6.07;;
912;SDS011;443;51.448;7.028;2023-01-19T02:51:27;5.90;;;5.30;;
912;SDS011;443;51.448;7.028;2023-01-19T02:54:11;9.90;;;6.47;;
912;SDS011;443;51.448;7.028;2023-01-19T02:56:55;6.80;;;5.03;;
912;SDS011;443;51.448;7.028;2023-01-19T02:59:48;5.80;;;4.83;;
912;SDS011;443;51.448;7.028;2023-01-19T03:02:24;7.60;;;5.30;;
912;SDS011;443;51.448;7.028;2023-01-19T03:05:03;5.90;;;5.27;;
912;SDS011;443;51.448;7.028;2023-01-19T03:07:43;7.27;;;5.73;;
912;SDS011;443;51.448;7.028;2023-01-19T03:10:25;10.13;;;5.60;;
912;SDS011;443;51.448;7.028;2023-01-19T03:12:58;9.57;;;6.70;;
912;SDS011;443;51.448;7.028;2023-01-19T03:15:30;8.50;;;6.73;;
912;SDS011;443;51.448;7.028;2023-01-19T03:18:01;11.90;;;6.50;;
912;SDS011;443;51.448;7.028;2023-01-19T03:20:31;8.60;;;5.77;;
912;SDS011;443;51.448;7.028;2023-01-19T03:22:59;5.90;;;5.30;;
912;SDS011;443;51.448;7.028;2023-01-19T03:25:31;8.43;;;6.20;;
912;SDS011;443;51.448;7.028;2023-01-19T03:28:02;5.70;;;5.00;;
912;SDS011;443;51.448;7.028;2023-01-19T03:30:30;6.73;;;5.13;;
912;SDS011;443;51.448;7.028;2023-01-19T03:33:00;7.10;;;5.97;;
912;SDS011;443;51.448;7.028;2023-01-19T03:35:33;7.93;;;6.23;;
912;SDS011;443;51.448;7.028;2023-01-19T03:38:02;7.03;;;5.57;;
912;SDS011;443;51.448;7.028;2023-01-19T03:40:34;7.77;;;5.43;;
912;SDS011;443;51.448;7.028;2023-01-19T03:43:01;5.73;;;5.10;;
912;SDS011;443;51.448;7.028;2023-01-19T03:45:30;6.93;;;5.67;;
912;SDS011;443;51.448;7.028;2023-01-19T03:47:59;5.10;;;4.60;;
912;SDS011;443;51.448;7.028;2023-01-19T03:50:27;12.30;;;5.77;;
912;SDS011;443;51.448;7.028;2023-01-19T03:53:01;6.40;;;4.97;;
912;SDS011;443;51.448;7.028;2023-01-19T03:55:34;6.43;;;4.80;;
912;SDS011;443;51.448;7.028;2023-01-19T03:58:01;7.20;;;5.50;;
912;SDS011;443;51.448;7.028;2023-01-19T04:00:28;5.93;;;5.43;;
912;SDS011;443;51.448;7.028;2023-01-19T04:02:55;6.93;;;5.13;;
912;SDS011;443;51.448;7.028;2023-01-19T04:05:22;6.57;;;5.60;;
912;SDS011;443;51.448;7.028;2023-01-19T04:07:49;8.40;;;5.90;;
912;SDS011;443;51.448;7.028;2023-01-19T04:10:18;6.73;;;4.80;;
912;SDS011;443;51.448;7.028;2023-01-19T04:12:46;7.90;;;5.67;;
912;SDS011;443;51.448;7.028;2023-01-19T04:15:14;7.47;;;5.20;;
912;SDS011;443;51.448;7.028;2023-01-19T04:17:42;7.17;;;6.47;;
912;SDS011;443;51.448;7.028;2023-01-19T04:20:09;7.33;;;5.77;;
912;SDS011;443;51.448;7.028;2023-01-19T04:22:36;6.50;;;5.37;;
912;SDS011;443;51.448;7.028;2023-01-19T04:25:04;6.90;;;5.90;;
912;SDS011;443;51.448;7.028;2023-01-19T04:27:32;5.53;;;4.53;;
912;SDS011;443;51.448;7.028;2023-01-19T04:30:00;8.30;;;6.23;;
912;SDS011;443;51.448;7.028;2023-01-19T04:32:28;6.33;;;5.73;;
912;SDS011;443;51.448;7.028;2023-01-19T04:34:55;6.93;;;5.07;;
912;SDS011;443;51.448;7.028;2023-01-19T04:37:22;6.80;;;4.90;;
912;SDS011;443;51.448;7.028;2023-01-19T04:39:48;6.70;;;5.17;;
912;SDS011;443;51.448;7.028;2023-01-19T04:42:15;5.57;;;5.00;;
912;SDS011;443;51.448;7.028;2023-01-19T04:44:42;6.47;;;5.60;;
912;SDS011;443;51.448;7.028;2023-01-19T04:47:10;7.37;;;5.07;;
912;SDS011;443;51.448;7.028;2023-01-19T04:49:36;9.30;;;6.00;;
912;SDS011;443;51.448;7.028;2023-01-19T04:52:03;8.53;;;6.80;;
912;SDS011;443;51.448;7.028;2023-01-19T04:54:30;6.40;;;5.10;;
912;SDS011;443;51.448;7.028;2023-01-19T04:56:57;8.50;;;5.17;;
912;SDS011;443;51.448;7.028;2023-01-19T04:59:24;5.83;;;4.63;;
912;SDS011;443;51.448;7.028;2023-01-19T05:01:51;5.00;;;4.30;;
912;SDS011;443;51.448;7.028;2023-01-19T05:04:19;5.23;;;4.33;;
912;SDS011;443;51.448;7.028;2023-01-19T05:06:46;7.73;;;5.20;;
912;SDS011;443;51.448;7.028;2023-01-19T05:09:13;6.00;;;3.97;;
912;SDS011;443;51.448;7.028;2023-01-19T05:11:40;7.30;;;4.80;;
912;SDS011;443;51.448;7.028;2023-01-19T05:14:07;5.90;;;4.67;;
912;SDS011;443;51.448;7.028;2023-01-19T05:16:34;4.90;;;4.23;;
912;SDS011;443;51.448;7.028;2023-01-19T05:19:00;6.90;;;4.93;;
912;SDS011;443;51.448;7.028;2023-01-19T05:21:28;5.30;;;4.30;;
912;SDS011;443;51.448;7.028;2023-01-19T05:23:55;7.20;;;5.80;;
912;SDS011;443;51.448;7.028;2023-01-19T05:26:22;8.20;;;5.60;;
912;SDS011;443;51.448;7.028;2023-01-19T05:28:49;5.93;;;5.30;;
912;SDS011;443;51.448;7.028;2023-01-19T05:31:15;5.57;;;4.83;;
912;SDS011;443;51.448;7.028;2023-01-19T05:33:42;5.80;;;5.23;;
912;SDS011;443;51.448;7.028;2023-01-19T05:36:09;8.70;;;5.37;;
912;SDS011;443;51.448;7.028;2023-01-19T05:38:37;6.33;;;5.03;;
912;SDS011;443;51.448;7.028;2023-01-19T05:41:04;8.27;;;5.50;;
912;SDS011;443;51.448;7.028;2023-01-19T05:43:31;6.67;;;4.90;;
912;SDS011;443;51.448;7.028;2023-01-19T05:45:57;5.13;;;4.50;;
912;SDS011;443;51.448;7.028;2023-01-19T05:48:24;7.73;;;4.57;;
912;SDS011;443;51.448;7.028;2023-01-19T05:50:55;5.00;;;3.90;;
912;SDS011;443;51.448;7.028;2023-01-19T05:53:22;5.20;;;4.70;;
912;SDS011;443;51.448;7.028;2023-01-19T05:55:51;4.67;;;4.23;;
912;SDS011;443;51.448;7.028;2023-01-19T05:58:17;5.83;;;3.33;;
912;SDS011;443;51.448;7.028;2023-01-19T06:00:44;7.23;;;3.80;;
912;SDS011;443;51.448;7.028;2023-01-19T06:03:11;4.20;;;3.50;;
912;SDS011;443;51.448;7.028;2023-01-19T06:05:37;5.60;;;3.93;;
912;SDS011;443;51.448;7.028;2023-01-19T06:08:04;5.70;;;4.23;;
912;SDS011;443;51.448;7.028;2023-01-19T06:10:31;3.53;;;3.20;;
912;SDS011;443;51.448;7.028;2023-01-19T06:12:59;4.80;;;4.20;;
912;SDS011;443;51.448;7.028;2023-01-19T06:15:26;5.23;;;4.03;;
912;SDS011;443;51.448;7.028;2023-01-19T06:17:53;5.47;;;4.27;;
912;SDS011;443;51.448;7.028;2023-01-19T06:20:20;5.67;;;4.67;;
912;SDS011;443;51.448;7.028;2023-01-19T06:22:47;5.73;;;4.47;;
912;SDS011;443;51.448;7.028;2023-01-19T06:25:13;5.27;;;4.77;;
912;SDS011;443;51.448;7.028;2023-01-19T06:27:42;5.60;;;4.23;;
912;SDS011;443;51.448;7.028;2023-01-19T06:30:11;5.53;;;4.97;;
912;SDS011;443;51.448;7.028;2023-01-19T06:32:38;4.90;;;4.50;;
912;SDS011;443;51.448;7.028;2023-01-19T06:35:05;4.70;;;4.10;;
912;SDS011;443;51.448;7.028;2023-01-19T06:37:32;6.10;;;4.77;;
912;SDS011;443;51.448;7.028;2023-01-19T06:39:59;4.33;;;3.87;;
912;SDS011;443;51.448;7.028;2023-01-19T06:42:26;3.67;;;3.30;;
912;SDS011;443;51.448;7.028;2023-01-19T06:44:53;3.30;;;2.70;;
912;SDS011;443;51.448;7.028;2023-01-19T06:47:21;4.47;;;3.50;;
912;SDS011;443;51.448;7.028;2023-01-19T06:49:47;5.07;;;4.07;;
912;SDS011;443;51.448;7.028;2023-01-19T06:52:14;4.93;;;3.70;;
912;SDS011;443;51.448;7.028;2023-01-19T06:54:42;3.87;;;3.53;;
912;SDS011;443;51.448;7.028;2023-01-19T06:57:10;5.00;;;3.93;;
912;SDS011;443;51.448;7.028;2023-01-19T06:59:37;3.80;;;2.97;;
912;SDS011;443;51.448;7.028;2023-01-19T07:02:03;3.10;;;2.60;;
912;SDS011;443;51.448;7.028;2023-01-19T07:04:32;3.90;;;3.37;;
912;SDS011;443;51.448;7.028;2023-01-19T07:06:59;4.53;;;2.80;;
912;SDS011;443;51.448;7.028;2023-01-19T07:09:26;3.20;;;2.80;;
912;SDS011;443;51.448;7.028;2023-01-19T07:11:53;3.97;;;3.50;;
912;SDS011;443;51.448;7.028;2023-01-19T07:14:19;4.23;;;3.83;;
912;SDS011;443;51.448;7.028;2023-01-19T07:16:46;5.17;;;4.10;;
912;SDS011;443;51.448;7.028;2023-01-19T07:19:13;4.57;;;4.17;;
912;SDS011;443;51.448;7.028;2023-01-19T07:21:41;5.63;;;4.80;;
912;SDS011;443;51.448;7.028;2023-01-19T07:24:08;5.37;;;4.87;;
912;SDS011;443;51.448;7.028;2023-01-19T07:26:35;5.63;;;5.13;;
912;SDS011;443;51.448;7.028;2023-01-19T07:29:01;5.10;;;4.60;;
912;SDS011;443;51.448;7.028;2023-01-19T07:31:28;8.10;;;5.10;;
912;SDS011;443;51.448;7.028;2023-01-19T07:33:55;5.77;;;4.13;;
912;SDS011;443;51.448;7.028;2023-01-19T07:36:22;5.37;;;4.87;;
912;SDS011;443;51.448;7.028;2023-01-19T07:38:50;6.13;;;5.53;;
912;SDS011;443;51.448;7.028;2023-01-19T07:41:16;6.27;;;5.33;;
912;SDS011;443;51.448;7.028;2023-01-19T07:43:43;8.87;;;5.87;;
912;SDS011;443;51.448;7.028;2023-01-19T07:46:10;8.17;;;5.90;;
912;SDS011;443;51.448;7.028;2023-01-19T07:48:37;6.90;;;6.20;;
912;SDS011;443;51.448;7.028;2023-01-19T07:51:04;7.57;;;5.13;;
912;SDS011;443;51.448;7.028;2023-01-19T07:53:32;8.43;;;6.13;;
912;SDS011;443;51.448;7.028;2023-01-19T07:56:01;7.93;;;6.40;;
912;SDS011;443;51.448;7.028;2023-01-19T07:58:30;8.93;;;5.60;;
912;SDS011;443;51.448;7.028;2023-01-19T08:00:56;8.40;;;6.17;;
912;SDS011;443;51.448;7.028;2023-01-19T08:03:23;7.37;;;6.57;;
912;SDS011;443;51.448;7.028;2023-01-19T08:05:51;9.67;;;6.10;;
912;SDS011;443;51.448;7.028;2023-01-19T08:08:18;8.30;;;5.50;;
912;SDS011;443;51.448;7.028;2023-01-19T08:10:49;6.53;;;5.83;;
912;SDS011;443;51.448;7.028;2023-01-19T08:13:17;13.63;;;6.33;;
912;SDS011;443;51.448;7.028;2023-01-19T08:15:44;7.00;;;6.03;;
912;SDS011;443;51.448;7.028;2023-01-19T08:18:14;6.80;;;5.80;;
912;SDS011;443;51.448;7.028;2023-01-19T08:20:41;9.17;;;6.00;;
912;SDS011;443;51.448;7.028;2023-01-19T08:23:08;8.93;;;6.10;;
912;SDS011;443;51.448;7.028;2023-01-19T08:25:36;7.03;;;5.70;;
912;SDS011;443;51.448;7.028;2023-01-19T08:28:06;9.20;;;6.60;;
912;SDS011;443;51.448;7.028;2023-01-19T08:30:35;8.20;;;6.97;;
912;SDS011;443;51.448;7.028;2023-01-19T08:33:02;8.40;;;6.00;;
912;SDS011;443;51.448;7.028;2023-01-19T08:35:32;8.60;;;6.60;;
912;SDS011;443;51.448;7.028;2023-01-19T08:38:00;7.93;;;5.70;;
912;SDS011;443;51.448;7.028;2023-01-19T08:40:28;8.97;;;5.53;;
912;SDS011;443;51.448;7.028;2023-01-19T08:42:57;8.33;;;7.10;;
912;SDS011;443;51.448;7.028;2023-01-19T08:45:27;7.77;;;6.97;;
912;SDS011;443;51.448;7.028;2023-01-19T08:47:56;9.13;;;6.30;;
912;SDS011;443;51.448;7.028;2023-01-19T08:50:23;8.40;;;7.47;;
912;SDS011;443;51.448;7.028;2023-01-19T08:52:50;7.27;;;6.53;;
912;SDS011;443;51.448;7.028;2023-01-19T08:55:17;9.73;;;8.23;;
912;SDS011;443;51.448;7.028;2023-01-19T08:57:44;10.63;;;7.80;;
912;SDS011;443;51.448;7.028;2023-01-19T09:00:11;7.80;;;5.80;;
912;SDS011;443;51.448;7.028;2023-01-19T09:02:38;11.70;;;8.50;;
912;SDS011;443;51.448;7.028;2023-01-19T09:05:07;10.60;;;8.70;;
912;SDS011;443;51.448;7.028;2023-01-19T09:07:34;7.93;;;6.50;;
912;SDS011;443;51.448;7.028;2023-01-19T09:10:01;10.17;;;8.60;;
912;SDS011;443;51.448;7.028;2023-01-19T09:12:28;11.40;;;8.67;;
912;SDS011;443;51.448;7.028;2023-01-19T09:14:54;9.87;;;7.80;;
912;SDS011;443;51.448;7.028;2023-01-19T09:17:21;10.83;;;8.50;;
912;SDS011;443;51.448;7.028;2023-01-19T09:19:48;12.17;;;10.20;;
912;SDS011;443;51.448;7.028;2023-01-19T09:22:17;12.30;;;9.20;;
912;SDS011;443;51.448;7.028;2023-01-19T09:24:44;10.43;;;8.53;;
912;SDS011;443;51.448;7.028;2023-01-19T09:27:10;9.57;;;8.57;;
912;SDS011;443;51.448;7.028;2023-01-19T09:29:37;10.27;;;7.93;;
912;SDS011;443;51.448;7.028;2023-01-19T09:32:04;13.70;;;8.67;;
912;SDS011;443;51.448;7.028;2023-01-19T09:34:31;10.60;;;8.87;;
912;SDS011;443;51.448;7.028;2023-01-19T09:36:58;13.40;;;10.13;;
912;SDS011;443;51.448;7.028;2023-01-19T09:39:26;8.67;;;7.53;;
912;SDS011;443;51.448;7.028;2023-01-19T09:41:55;10.60;;;8.27;;
912;SDS011;443;51.448;7.028;2023-01-19T09:44:28;11.83;;;9.63;;
912;SDS011;443;51.448;7.028;2023-01-19T09:46:58;9.70;;;7.90;;
912;SDS011;443;51.448;7.028;2023-01-19T09:49:30;9.00;;;8.10;;
912;SDS011;443;51.448;7.028;2023-01-19T09:52:01;10.20;;;8.30;;
912;SDS011;443;51.448;7.028;2023-01-19T09:54:30;21.03;;;10.40;;
912;SDS011;443;51.448;7.028;2023-01-19T09:57:07;15.27;;;10.40;;
912;SDS011;443;51.448;7.028;2023-01-19T09:59:36;12.60;;;10.33;;
912;SDS011;443;51.448;7.028;2023-01-19T10:02:05;11.87;;;8.80;;
912;SDS011;443;51.448;7.028;2023-01-19T10:04:42;10.10;;;9.10;;
912;SDS011;443;51.448;7.028;2023-01-19T10:07:15;11.80;;;8.93;;
912;SDS011;443;51.448;7.028;2023-01-19T10:09:59;12.33;;;9.70;;
912;SDS011;443;51.448;7.028;2023-01-19T10:12:35;11.73;;;9.20;;
912;SDS011;443;51.448;7.028;2023-01-19T10:15:13;13.87;;;9.57;;
912;SDS011;443;51.448;7.028;2023-01-19T10:17:48;14.97;;;9.80;;
912;SDS011;443;51.448;7.028;2023-01-19T10:20:25;11.40;;;10.30;;
912;SDS011;443;51.448;7.028;2023-01-19T10:22:57;16.60;;;11.73;;
912;SDS011;443;51.448;7.028;2023-01-19T10:25:26;15.90;;;10.20;;
912;SDS011;443;51.448;7.028;2023-01-19T10:27:53;14.50;;;10.53;;
912;SDS011;443;51.448;7.028;2023-01-19T10:30:21;13.80;;;10.33;;
912;SDS011;443;51.448;7.028;2023-01-19T10:32:51;12.97;;;10.13;;
912;SDS011;443;51.448;7.028;2023-01-19T10:35:19;13.30;;;10.87;;
912;SDS011;443;51.448;7.028;2023-01-19T10:37:48;14.97;;;9.60;;
912;SDS011;443;51.448;7.028;2023-01-19T10:40:18;17.10;;;10.43;;
912;SDS011;443;51.448;7.028;2023-01-19T10:42:55;13.00;;;8.80;;
912;SDS011;443;51.448;7.028;2023-01-19T10:45:23;19.33;;;10.17;;
912;SDS011;443;51.448;7.028;2023-01-19T10:47:53;17.20;;;10.30;;
912;SDS011;443;51.448;7.028;2023-01-19T10:50:23;14.80;;;10.57;;
912;SDS011;443;51.448;7.028;2023-01-19T10:52:52;19.60;;;10.50;;
912;SDS011;443;51.448;7.028;2023-01-19T10:55:24;11.70;;;9.20;;
912;SDS011;443;51.448;7.028;2023-01-19T10:57:53;17.13;;;11.30;;
912;SDS011;443;51.448;7.028;2023-01-19T11:03:01;16.13;;;11.73;;
912;SDS011;443;51.448;7.028;2023-01-19T11:05:29;17.90;;;11.00;;
912;SDS011;443;51.448;7.028;2023-01-19T11:07:57;15.47;;;10.17;;
912;SDS011;443;51.448;7.028;2023-01-19T11:10:24;14.07;;;11.00;;
912;SDS011;443;51.448;7.028;2023-01-19T11:12:59;14.70;;;9.93;;
912;SDS011;443;51.448;7.028;2023-01-19T11:15:31;16.53;;;9.90;;
912;SDS011;443;51.448;7.028;2023-01-19T11:18:06;18.57;;;11.00;;
912;SDS011;443;51.448;7.028;2023-01-19T11:20:38;12.50;;;8.80;;
912;SDS011;443;51.448;7.028;2023-01-19T11:23:17;12.97;;;9.13;;
912;SDS011;443;51.448;7.028;2023-01-19T11:25:50;15.60;;;8.80;;
912;SDS011;443;51.448;7.028;2023-01-19T11:28:19;16.83;;;11.00;;
912;SDS011;443;51.448;7.028;2023-01-19T11:30:54;12.93;;;9.00;;
912;SDS011;443;51.448;7.028;2023-01-19T11:33:24;16.40;;;11.30;;
912;SDS011;443;51.448;7.028;2023-01-19T11:36:00;15.33;;;8.47;;
912;SDS011;443;51.448;7.028;2023-01-19T11:38:29;18.93;;;11.83;;
912;SDS011;443;51.448;7.028;2023-01-19T11:40:57;15.43;;;9.10;;
912;SDS011;443;51.448;7.028;2023-01-19T11:43:26;19.20;;;10.67;;
912;SDS011;443;51.448;7.028;2023-01-19T11:45:56;21.00;;;12.67;;
912;SDS011;443;51.448;7.028;2023-01-19T11:48:26;18.33;;;10.37;;
912;SDS011;443;51.448;7.028;2023-01-19T11:50:56;21.80;;;13.30;;
912;SDS011;443;51.448;7.028;2023-01-19T11:53:26;20.13;;;13.83;;
912;SDS011;443;51.448;7.028;2023-01-19T11:55:58;20.77;;;14.67;;
912;SDS011;443;51.448;7.028;2023-01-19T11:58:28;16.17;;;11.30;;
912;SDS011;443;51.448;7.028;2023-01-19T12:00:59;22.33;;;12.90;;
912;SDS011;443;51.448;7.028;2023-01-19T12:03:30;24.00;;;15.37;;
912;SDS011;443;51.448;7.028;2023-01-19T12:05:59;22.10;;;14.73;;
912;SDS011;443;51.448;7.028;2023-01-19T12:08:30;28.03;;;14.73;;
912;SDS011;443;51.448;7.028;2023-01-19T12:11:00;19.60;;;13.57;;
912;SDS011;443;51.448;7.028;2023-01-19T12:13:29;18.90;;;12.50;;
912;SDS011;443;51.448;7.028;2023-01-19T12:16:00;20.80;;;14.60;;
912;SDS011;443;51.448;7.028;2023-01-19T12:18:32;20.40;;;13.80;;
912;SDS011;443;51.448;7.028;2023-01-19T12:21:02;23.13;;;13.93;;
912;SDS011;443;51.448;7.028;2023-01-19T12:23:36;19.20;;;13.47;;
912;SDS011;443;51.448;7.028;2023-01-19T12:29:03;18.90;;;13.23;;
912;SDS011;443;51.448;7.028;2023-01-19T12:31:34;20.30;;;14.50;;
912;SDS011;443;51.448;7.028;2023-01-19T12:37:05;20.60;;;13.03;;
912;SDS011;443;51.448;7.028;2023-01-19T12:39:52;18.10;;;11.33;;
912;SDS011;443;51.448;7.028;2023-01-19T12:42:20;20.43;;;13.30;;
912;SDS011;443;51.448;7.028;2023-01-19T12:44:48;19.77;;;13.27;;
912;SDS011;443;51.448;7.028;2023-01-19T12:47:29;16.77;;;10.10;;
912;SDS011;443;51.448;7.028;2023-01-19T12:49:57;20.07;;;11.27;;
912;SDS011;443;51.448;7.028;2023-01-19T12:52:31;18.07;;;12.40;;
912;SDS011;443;51.448;7.028;2023-01-19T12:55:00;22.87;;;12.27;;
912;SDS011;443;51.448;7.028;2023-01-19T12:57:32;15.60;;;10.37;;
912;SDS011;443;51.448;7.028;2023-01-19T13:00:04;17.90;;;12.90;;
912;SDS011;443;51.448;7.028;2023-01-19T13:02:44;24.10;;;12.77;;
912;SDS011;443;51.448;7.028;2023-01-19T13:05:16;13.50;;;9.80;;
912;SDS011;443;51.448;7.028;2023-01-19T13:10:55;20.00;;;12.37;;
912;SDS011;443;51.448;7.028;2023-01-19T13:13:39;15.10;;;11.00;;
912;SDS011;443;51.448;7.028;2023-01-19T13:19:14;15.53;;;10.90;;
912;SDS011;443;51.448;7.028;2023-01-19T13:21:43;22.00;;;13.13;;
912;SDS011;443;51.448;7.028;2023-01-19T13:24:12;19.53;;;12.60;;
912;SDS011;443;51.448;7.028;2023-01-19T13:26:41;25.00;;;12.97;;
912;SDS011;443;51.448;7.028;2023-01-19T13:29:19;21.13;;;12.20;;
912;SDS011;443;51.448;7.028;2023-01-19T13:31:52;17.57;;;11.50;;
912;SDS011;443;51.448;7.028;2023-01-19T13:34:28;21.37;;;12.77;;
912;SDS011;443;51.448;7.028;2023-01-19T13:36:57;16.30;;;11.90;;
912;SDS011;443;51.448;7.028;2023-01-19T13:39:26;20.40;;;14.27;;
912;SDS011;443;51.448;7.028;2023-01-19T13:41:56;17.93;;;11.70;;
912;SDS011;443;51.448;7.028;2023-01-19T13:44:26;20.57;;;13.10;;
912;SDS011;443;51.448;7.028;2023-01-19T13:46:56;18.13;;;12.33;;
912;SDS011;443;51.448;7.028;2023-01-19T13:49:25;13.93;;;10.57;;
912;SDS011;443;51.448;7.028;2023-01-19T13:52:03;19.97;;;11.10;;
912;SDS011;443;51.448;7.028;2023-01-19T13:54:36;14.97;;;11.63;;
912;SDS011;443;51.448;7.028;2023-01-19T13:57:19;17.20;;;10.97;;
912;SDS011;443;51.448;7.028;2023-01-19T13:59:59;14.63;;;10.10;;
912;SDS011;443;51.448;7.028;2023-01-19T14:02:27;19.20;;;10.33;;
912;SDS011;443;51.448;7.028;2023-01-19T14:04:55;13.37;;;8.33;;
912;SDS011;443;51.448;7.028;2023-01-19T14:07:22;12.90;;;9.13;;
912;SDS011;443;51.448;7.028;2023-01-19T14:09:59;14.10;;;11.30;;
912;SDS011;443;51.448;7.028;2023-01-19T14:12:26;18.70;;;9.93;;
912;SDS011;443;51.448;7.028;2023-01-19T14:14:53;14.40;;;9.53;;
912;SDS011;443;51.448;7.028;2023-01-19T14:17:24;16.57;;;10.83;;
912;SDS011;443;51.448;7.028;2023-01-19T14:19:52;11.33;;;8.67;;
912;SDS011;443;51.448;7.028;2023-01-19T14:22:23;15.93;;;10.10;;
912;SDS011;443;51.448;7.028;2023-01-19T14:30:51;12.27;;;7.77;;
912;SDS011;443;51.448;7.028;2023-01-19T14:33:32;13.83;;;9.70;;
912;SDS011;443;51.448;7.028;2023-01-19T14:36:09;18.40;;;9.40;;
912;SDS011;443;51.448;7.028;2023-01-19T14:38:47;16.00;;;8.93;;
912;SDS011;443;51.448;7.028;2023-01-19T14:41:20;11.80;;;8.73;;
912;SDS011;443;51.448;7.028;2023-01-19T14:43:50;16.70;;;11.53;;
912;SDS011;443;51.448;7.028;2023-01-19T14:46:20;12.77;;;9.37;;
912;SDS011;443;51.448;7.028;2023-01-19T14:48:49;14.43;;;9.37;;
912;SDS011;443;51.448;7.028;2023-01-19T14:51:18;18.70;;;9.77;;
912;SDS011;443;51.448;7.028;2023-01-19T14:53:49;15.13;;;9.30;;
912;SDS011;443;51.448;7.028;2023-01-19T14:56:24;17.10;;;10.60;;
912;SDS011;443;51.448;7.028;2023-01-19T14:58:52;14.87;;;8.90;;
912;SDS011;443;51.448;7.028;2023-01-19T15:01:20;17.83;;;11.37;;
912;SDS011;443;51.448;7.028;2023-01-19T15:03:47;13.67;;;9.97;;
912;SDS011;443;51.448;7.028;2023-01-19T15:06:14;12.83;;;8.57;;
912;SDS011;443;51.448;7.028;2023-01-19T15:08:43;17.37;;;8.97;;
912;SDS011;443;51.448;7.028;2023-01-19T15:11:19;24.57;;;9.87;;
912;SDS011;443;51.448;7.028;2023-01-19T15:13:48;12.37;;;9.00;;
912;SDS011;443;51.448;7.028;2023-01-19T15:16:15;10.80;;;8.70;;
912;SDS011;443;51.448;7.028;2023-01-19T15:18:42;11.93;;;8.30;;
912;SDS011;443;51.448;7.028;2023-01-19T15:21:09;14.20;;;8.30;;
912;SDS011;443;51.448;7.028;2023-01-19T15:23:39;12.63;;;8.67;;
912;SDS011;443;51.448;7.028;2023-01-19T15:26:06;11.60;;;7.73;;
912;SDS011;443;51.448;7.028;2023-01-19T15:28:40;12.10;;;8.10;;
912;SDS011;443;51.448;7.028;2023-01-19T15:31:08;12.33;;;7.20;;
912;SDS011;443;51.448;7.028;2023-01-19T15:33:40;13.70;;;9.67;;
912;SDS011;443;51.448;7.028;2023-01-19T15:36:10;11.83;;;7.80;;
912;SDS011;443;51.448;7.028;2023-01-19T15:38:37;14.60;;;7.80;;
912;SDS011;443;51.448;7.028;2023-01-19T15:41:08;21.57;;;8.23;;
912;SDS011;443;51.448;7.028;2023-01-19T15:43:37;11.10;;;8.07;;
912;SDS011;443;51.448;7.028;2023-01-19T15:46:06;9.80;;;7.60;;
912;SDS011;443;51.448;7.028;2023-01-19T15:48:34;11.20;;;6.70;;
912;SDS011;443;51.448;7.028;2023-01-19T15:51:01;13.83;;;6.80;;
912;SDS011;443;51.448;7.028;2023-01-19T15:53:28;9.73;;;6.80;;
912;SDS011;443;51.448;7.028;2023-01-19T15:55:55;12.70;;;7.77;;
912;SDS011;443;51.448;7.028;2023-01-19T15:58:22;10.90;;;6.80;;
912;SDS011;443;51.448;7.028;2023-01-19T16:00:54;10.70;;;6.73;;
912;SDS011;443;51.448;7.028;2023-01-19T16:03:22;9.63;;;7.43;;
912;SDS011;443;51.448;7.028;2023-01-19T16:05:49;10.63;;;6.33;;
912;SDS011;443;51.448;7.028;2023-01-19T16:08:16;8.43;;;5.90;;
912;SDS011;443;51.448;7.028;2023-01-19T16:10:43;8.30;;;5.67;;